sensor_id;sensor_type;location;lat;lon;timestamp;pressure;altitude;pressure_sealevel;temperature;humidity
6028;BME280;3042;43.194;27.646;2022-12-18T00:00:00;102347.63;;;19.60;100.00
6028;BME280;3042;43.194;27.646;2022-12-18T00:02:27;102348.78;;;19.69;100.00
6028;BME280;3042;43.194;27.646;2022-12-18T00:04:54;102339.28;;;19.47;100.00
6028;BME280;3042;43.194;27.646;2022-12-18T00:07:23;102346.16;;;19.69;100.00
6028;BME280;3042;43.194;27.646;2022-12-18T00:09:50;102346.97;;;19.68;100.00
6028;BME280;3042;43.194;27.646;2022-12-18T00:12:17;102348.91;;;19.72;100.00
6028;BME280;3042;43.194;27.646;2022-12-18T00:14:44;102372.66;;;19.51;100.00
6028;BME280;3042;43.194;27.646;2022-12-18T00:17:12;102386.53;;;19.23;100.00
6028;BME280;3042;43.194;27.646;2022-12-18T00:19:39;102385.34;;;19.14;100.00
6028;BME280;3042;43.194;27.646;2022-12-18T00:22:06;102385.19;;;19.34;100.00
6028;BME280;3042;43.194;27.646;2022-12-18T00:24:35;102379.88;;;19.58;100.00
6028;BME280;3042;43.194;27.646;2022-12-18T00:27:02;102392.63;;;19.47;100.00
6028;BME280;3042;43.194;27.646;2022-12-18T00:29:29;102384.13;;;19.54;100.00
6028;BME280;3042;43.194;27.646;2022-12-18T00:31:56;102327.56;;;18.86;100.00
6028;BME280;3042;43.194;27.646;2022-12-18T00:34:23;102399.22;;;19.36;100.00
6028;BME280;3042;43.194;27.646;2022-12-18T00:36:51;102257.22;;;18.72;100.00
6028;BME280;3042;43.194;27.646;2022-12-18T00:39:18;102394.75;;;19.57;100.00
6028;BME280;3042;43.194;27.646;2022-12-18T00:41:47;102407.03;;;19.34;100.00
6028;BME280;3042;43.194;27.646;2022-12-18T00:44:31;102413.28;;;19.38;100.00
6028;BME280;3042;43.194;27.646;2022-12-18T00:46:58;102422.03;;;19.38;100.00
6028;BME280;3042;43.194;27.646;2022-12-18T00:49:26;102423.59;;;19.33;100.00
6028;BME280;3042;43.194;27.646;2022-12-18T00:51:53;102417.00;;;19.45;100.00
6028;BME280;3042;43.194;27.646;2022-12-18T00:54:23;102417.06;;;19.46;100.00
6028;BME280;3042;43.194;27.646;2022-12-18T00:56:52;102409.56;;;19.57;100.00
6028;BME280;3042;43.194;27.646;2022-12-18T00:59:20;102411.41;;;19.34;100.00
6028;BME280;3042;43.194;27.646;2022-12-18T01:01:48;102418.16;;;19.27;100.00
6028;BME280;3042;43.194;27.646;2022-12-18T01:04:15;102427.00;;;19.31;100.00
6028;BME280;3042;43.194;27.646;2022-12-18T01:06:42;102425.09;;;19.27;100.00
6028;BME280;3042;43.194;27.646;2022-12-18T01:09:09;102433.38;;;19.13;100.00
6028;BME280;3042;43.194;27.646;2022-12-18T01:11:36;102444.09;;;18.74;100.00
6028;BME280;3042;43.194;27.646;2022-12-18T01:14:05;102412.13;;;18.59;100.00
6028;BME280;3042;43.194;27.646;2022-12-18T01:16:33;102436.50;;;18.58;100.00
6028;BME280;3042;43.194;27.646;2022-12-18T01:19:00;102444.84;;;18.48;100.00
6028;BME280;3042;43.194;27.646;2022-12-18T01:21:27;102437.75;;;18.68;100.00
6028;BME280;3042;43.194;27.646;2022-12-18T01:23:55;102430.06;;;18.72;100.00
6028;BME280;3042;43.194;27.646;2022-12-18T01:26:24;102429.59;;;18.60;100.00
6028;BME280;3042;43.194;27.646;2022-12-18T01:28:54;102432.16;;;18.59;100.00
6028;BME280;3042;43.194;27.646;2022-12-18T01:31:25;102422.69;;;18.62;100.00
6028;BME280;3042;43.194;27.646;2022-12-18T01:33:53;102434.59;;;18.54;100.00
6028;BME280;3042;43.194;27.646;2022-12-18T01:36:23;102348.31;;;18.12;100.00
6028;BME280;3042;43.194;27.646;2022-12-18T01:38:50;102422.31;;;18.08;100.00
6028;BME280;3042;43.194;27.646;2022-12-18T01:41:19;102447.38;;;18.46;100.00
6028;BME280;3042;43.194;27.646;2022-12-18T01:43:50;102447.56;;;18.51;100.00
6028;BME280;3042;43.194;27.646;2022-12-18T01:46:18;102450.28;;;18.54;100.00
6028;BME280;3042;43.194;27.646;2022-12-18T01:48:50;102419.59;;;18.27;100.00
6028;BME280;3042;43.194;27.646;2022-12-18T01:51:18;102443.69;;;18.41;100.00
6028;BME280;3042;43.194;27.646;2022-12-18T01:53:46;102429.63;;;18.17;100.00
6028;BME280;3042;43.194;27.646;2022-12-18T01:56:15;102448.06;;;18.41;100.00
6028;BME280;3042;43.194;27.646;2022-12-18T01:58:48;102442.72;;;17.96;100.00
6028;BME280;3042;43.194;27.646;2022-12-18T02:01:17;102452.63;;;17.82;100.00
6028;BME280;3042;43.194;27.646;2022-12-18T02:03:45;102450.06;;;17.83;100.00
6028;BME280;3042;43.194;27.646;2022-12-18T02:06:16;102448.09;;;17.99;100.00
6028;BME280;3042;43.194;27.646;2022-12-18T02:08:55;102450.13;;;18.06;100.00
6028;BME280;3042;43.194;27.646;2022-12-18T02:11:32;102457.50;;;18.16;100.00
6028;BME280;3042;43.194;27.646;2022-12-18T02:14:14;102450.06;;;17.83;100.00
6028;BME280;3042;43.194;27.646;2022-12-18T02:16:48;102474.38;;;18.02;100.00
6028;BME280;3042;43.194;27.646;2022-12-18T02:19:34;102452.03;;;18.10;100.00
6028;BME280;3042;43.194;27.646;2022-12-18T02:22:20;102478.31;;;18.34;100.00
6028;BME280;3042;43.194;27.646;2022-12-18T02:25:00;102492.97;;;18.30;100.00
6028;BME280;3042;43.194;27.646;2022-12-18T02:27:34;102455.34;;;18.06;100.00
6028;BME280;3042;43.194;27.646;2022-12-18T02:30:06;102502.84;;;18.15;100.00
6028;BME280;3042;43.194;27.646;2022-12-18T02:32:37;102490.56;;;18.35;100.00
6028;BME280;3042;43.194;27.646;2022-12-18T02:35:11;102497.97;;;18.24;100.00
6028;BME280;3042;43.194;27.646;2022-12-18T02:37:40;102523.50;;;18.09;100.00
6028;BME280;3042;43.194;27.646;2022-12-18T02:40:11;102522.63;;;18.29;100.00
6028;BME280;3042;43.194;27.646;2022-12-18T02:42:40;102532.97;;;18.26;100.00
6028;BME280;3042;43.194;27.646;2022-12-18T02:45:08;102535.44;;;18.23;100.00
6028;BME280;3042;43.194;27.646;2022-12-18T02:47:38;102544.94;;;18.21;100.00
6028;BME280;3042;43.194;27.646;2022-12-18T02:50:11;102538.78;;;18.19;100.00
6028;BME280;3042;43.194;27.646;2022-12-18T02:52:46;102525.53;;;18.37;100.00
6028;BME280;3042;43.194;27.646;2022-12-18T02:55:24;102524.59;;;18.35;100.00
6028;BME280;3042;43.194;27.646;2022-12-18T02:57:59;102539.72;;;18.21;100.00
6028;BME280;3042;43.194;27.646;2022-12-18T03:00:35;102486.25;;;17.93;100.00
6028;BME280;3042;43.194;27.646;2022-12-18T03:03:06;102534.09;;;18.33;100.00
6028;BME280;3042;43.194;27.646;2022-12-18T03:05:39;102544.56;;;18.33;100.00
6028;BME280;3042;43.194;27.646;2022-12-18T03:08:10;102397.97;;;17.47;100.00
6028;BME280;3042;43.194;27.646;2022-12-18T03:10:43;102521.38;;;18.21;100.00
6028;BME280;3042;43.194;27.646;2022-12-18T03:13:17;102528.59;;;17.85;100.00
6028;BME280;3042;43.194;27.646;2022-12-18T03:15:48;102521.72;;;18.08;100.00
6028;BME280;3042;43.194;27.646;2022-12-18T03:18:20;102519.53;;;18.19;100.00
6028;BME280;3042;43.194;27.646;2022-12-18T03:20:49;102530.53;;;18.10;100.00
6028;BME280;3042;43.194;27.646;2022-12-18T03:23:24;102531.16;;;18.25;100.00
6028;BME280;3042;43.194;27.646;2022-12-18T03:25:55;102525.81;;;18.22;100.00
6028;BME280;3042;43.194;27.646;2022-12-18T03:28:28;102519.41;;;18.16;100.00
6028;BME280;3042;43.194;27.646;2022-12-18T03:31:00;102528.81;;;18.10;100.00
6028;BME280;3042;43.194;27.646;2022-12-18T03:33:35;102522.41;;;18.04;100.00
6028;BME280;3042;43.194;27.646;2022-12-18T03:36:05;102522.59;;;17.87;100.00
6028;BME280;3042;43.194;27.646;2022-12-18T03:38:32;102524.25;;;17.85;100.00
6028;BME280;3042;43.194;27.646;2022-12-18T03:41:05;102475.56;;;17.69;100.00
6028;BME280;3042;43.194;27.646;2022-12-18T03:43:43;102525.03;;;18.04;100.00
6028;BME280;3042;43.194;27.646;2022-12-18T03:46:19;102538.00;;;17.81;100.00
6028;BME280;3042;43.194;27.646;2022-12-18T03:48:54;102540.44;;;17.98;100.00
6028;BME280;3042;43.194;27.646;2022-12-18T03:51:26;102561.28;;;17.77;100.00
6028;BME280;3042;43.194;27.646;2022-12-18T03:53:58;102563.09;;;17.78;100.00
6028;BME280;3042;43.194;27.646;2022-12-18T03:56:29;102575.53;;;17.82;100.00
6028;BME280;3042;43.194;27.646;2022-12-18T03:59:00;102555.13;;;17.36;100.00
6028;BME280;3042;43.194;27.646;2022-12-18T04:01:31;102584.63;;;17.72;100.00
6028;BME280;3042;43.194;27.646;2022-12-18T04:04:00;102599.16;;;17.65;100.00
6028;BME280;3042;43.194;27.646;2022-12-18T04:06:28;102599.09;;;17.64;100.00
6028;BME280;3042;43.194;27.646;2022-12-18T04:08:57;102618.63;;;17.52;100.00
6028;BME280;3042;43.194;27.646;2022-12-18T04:11:24;102620.75;;;17.61;100.00
6028;BME280;3042;43.194;27.646;2022-12-18T04:13:55;102593.56;;;17.58;100.00
6028;BME280;3042;43.194;27.646;2022-12-18T04:16:24;102629.44;;;17.80;100.00
6028;BME280;3042;43.194;27.646;2022-12-18T04:18:51;102643.53;;;17.64;100.00
6028;BME280;3042;43.194;27.646;2022-12-18T04:21:18;102654.91;;;17.46;100.00
6028;BME280;3042;43.194;27.646;2022-12-18T04:23:46;102671.72;;;17.51;100.00
6028;BME280;3042;43.194;27.646;2022-12-18T04:26:13;102666.50;;;17.51;100.00
6028;BME280;3042;43.194;27.646;2022-12-18T04:28:40;102660.00;;;17.43;100.00
6028;BME280;3042;43.194;27.646;2022-12-18T04:31:08;102666.75;;;17.38;100.00
6028;BME280;3042;43.194;27.646;2022-12-18T04:33:37;102655.34;;;17.56;100.00
6028;BME280;3042;43.194;27.646;2022-12-18T04:36:04;102666.78;;;17.58;100.00
6028;BME280;3042;43.194;27.646;2022-12-18T04:38:32;102620.91;;;17.27;100.00
6028;BME280;3042;43.194;27.646;2022-12-18T04:40:59;102678.22;;;17.42;100.00
6028;BME280;3042;43.194;27.646;2022-12-18T04:43:26;102687.94;;;17.44;100.00
6028;BME280;3042;43.194;27.646;2022-12-18T04:45:53;102683.28;;;17.57;100.00
6028;BME280;3042;43.194;27.646;2022-12-18T04:48:27;102705.94;;;17.38;100.00
6028;BME280;3042;43.194;27.646;2022-12-18T04:50:56;102715.94;;;17.29;100.00
6028;BME280;3042;43.194;27.646;2022-12-18T04:53:23;102727.38;;;17.31;100.00
6028;BME280;3042;43.194;27.646;2022-12-18T04:55:50;102730.00;;;17.31;100.00
6028;BME280;3042;43.194;27.646;2022-12-18T04:58:18;102750.91;;;16.79;100.00
6028;BME280;3042;43.194;27.646;2022-12-18T05:00:45;102740.34;;;16.77;100.00
6028;BME280;3042;43.194;27.646;2022-12-18T05:03:12;102742.47;;;16.68;100.00
6028;BME280;3042;43.194;27.646;2022-12-18T05:05:39;102750.22;;;16.34;100.00
6028;BME280;3042;43.194;27.646;2022-12-18T05:08:08;102750.06;;;16.14;100.00
6028;BME280;3042;43.194;27.646;2022-12-18T05:10:35;102760.06;;;15.90;100.00
6028;BME280;3042;43.194;27.646;2022-12-18T05:13:02;102772.22;;;15.90;100.00
6028;BME280;3042;43.194;27.646;2022-12-18T05:15:30;102747.13;;;16.41;100.00
6028;BME280;3042;43.194;27.646;2022-12-18T05:17:58;102749.91;;;16.44;100.00
6028;BME280;3042;43.194;27.646;2022-12-18T05:20:26;102773.69;;;16.01;100.00
6028;BME280;3042;43.194;27.646;2022-12-18T05:22:54;102778.44;;;16.24;100.00
6028;BME280;3042;43.194;27.646;2022-12-18T05:25:23;102779.41;;;16.59;100.00
6028;BME280;3042;43.194;27.646;2022-12-18T05:27:50;102791.97;;;16.34;100.00
6028;BME280;3042;43.194;27.646;2022-12-18T05:30:17;102794.28;;;16.44;100.00
6028;BME280;3042;43.194;27.646;2022-12-18T05:32:45;102812.19;;;16.21;100.00
6028;BME280;3042;43.194;27.646;2022-12-18T05:35:12;102821.19;;;15.95;100.00
6028;BME280;3042;43.194;27.646;2022-12-18T05:37:39;102817.13;;;16.00;100.00
6028;BME280;3042;43.194;27.646;2022-12-18T05:40:07;102817.41;;;16.21;100.00
6028;BME280;3042;43.194;27.646;2022-12-18T05:42:36;102810.13;;;15.99;100.00
6028;BME280;3042;43.194;27.646;2022-12-18T05:45:04;102828.63;;;16.04;100.00
6028;BME280;3042;43.194;27.646;2022-12-18T05:47:32;102857.63;;;15.34;100.00
6028;BME280;3042;43.194;27.646;2022-12-18T05:49:59;102861.75;;;15.46;100.00
6028;BME280;3042;43.194;27.646;2022-12-18T05:52:26;102861.94;;;15.49;100.00
6028;BME280;3042;43.194;27.646;2022-12-18T05:54:53;102873.97;;;15.47;100.00
6028;BME280;3042;43.194;27.646;2022-12-18T05:57:21;102780.50;;;14.35;100.00
6028;BME280;3042;43.194;27.646;2022-12-18T05:59:49;102879.00;;;15.44;100.00
6028;BME280;3042;43.194;27.646;2022-12-18T06:02:17;102903.75;;;15.07;100.00
6028;BME280;3042;43.194;27.646;2022-12-18T06:04:46;102729.34;;;14.21;100.00
6028;BME280;3042;43.194;27.646;2022-12-18T06:07:13;102917.25;;;15.15;100.00
6028;BME280;3042;43.194;27.646;2022-12-18T06:09:41;102923.53;;;15.33;100.00
6028;BME280;3042;43.194;27.646;2022-12-18T06:12:08;102933.78;;;15.30;100.00
6028;BME280;3042;43.194;27.646;2022-12-18T06:14:36;102930.31;;;15.02;100.00
6028;BME280;3042;43.194;27.646;2022-12-18T06:17:04;102894.53;;;15.27;100.00
6028;BME280;3042;43.194;27.646;2022-12-18T06:19:32;102969.41;;;14.88;100.00
6028;BME280;3042;43.194;27.646;2022-12-18T06:21:59;102967.97;;;14.93;100.00
6028;BME280;3042;43.194;27.646;2022-12-18T06:24:26;102978.31;;;15.20;100.00
6028;BME280;3042;43.194;27.646;2022-12-18T06:26:53;102998.91;;;14.89;100.00
6028;BME280;3042;43.194;27.646;2022-12-18T06:29:20;102994.97;;;15.09;100.00
6028;BME280;3042;43.194;27.646;2022-12-18T06:31:48;103010.38;;;15.19;100.00
6028;BME280;3042;43.194;27.646;2022-12-18T06:34:16;102994.94;;;15.65;100.00
6028;BME280;3042;43.194;27.646;2022-12-18T06:36:43;103017.81;;;15.13;100.00
6028;BME280;3042;43.194;27.646;2022-12-18T06:39:11;103020.34;;;15.26;100.00
6028;BME280;3042;43.194;27.646;2022-12-18T06:41:38;103020.19;;;15.23;100.00
6028;BME280;3042;43.194;27.646;2022-12-18T06:44:05;103014.50;;;15.44;100.00
6028;BME280;3042;43.194;27.646;2022-12-18T06:46:32;103020.75;;;15.32;100.00
6028;BME280;3042;43.194;27.646;2022-12-18T06:48:59;103025.34;;;15.36;100.00
6028;BME280;3042;43.194;27.646;2022-12-18T06:51:28;103014.78;;;15.76;100.00
6028;BME280;3042;43.194;27.646;2022-12-18T06:53:55;103042.25;;;15.15;100.00
6028;BME280;3042;43.194;27.646;2022-12-18T06:56:23;103042.91;;;15.26;100.00
6028;BME280;3042;43.194;27.646;2022-12-18T06:58:50;103047.63;;;15.31;100.00
6028;BME280;3042;43.194;27.646;2022-12-18T07:01:17;102952.13;;;14.75;100.00
6028;BME280;3042;43.194;27.646;2022-12-18T07:03:44;103058.03;;;15.31;100.00
6028;BME280;3042;43.194;27.646;2022-12-18T07:06:16;103049.06;;;15.69;100.00
6028;BME280;3042;43.194;27.646;2022-12-18T07:08:46;102786.41;;;14.33;100.00
6028;BME280;3042;43.194;27.646;2022-12-18T07:11:13;103074.59;;;15.47;100.00
6028;BME280;3042;43.194;27.646;2022-12-18T07:13:40;103074.84;;;15.36;100.00
6028;BME280;3042;43.194;27.646;2022-12-18T07:16:09;103078.06;;;15.74;100.00
6028;BME280;3042;43.194;27.646;2022-12-18T07:18:37;103080.38;;;15.56;100.00
6028;BME280;3042;43.194;27.646;2022-12-18T07:21:05;103089.78;;;15.39;100.00
6028;BME280;3042;43.194;27.646;2022-12-18T07:23:33;102799.50;;;13.66;100.00
6028;BME280;3042;43.194;27.646;2022-12-18T07:26:04;103063.84;;;15.27;100.00
6028;BME280;3042;43.194;27.646;2022-12-18T07:28:31;103113.66;;;15.05;100.00
6028;BME280;3042;43.194;27.646;2022-12-18T07:31:02;103029.69;;;14.81;100.00
6028;BME280;3042;43.194;27.646;2022-12-18T07:33:29;103116.53;;;15.23;100.00
6028;BME280;3042;43.194;27.646;2022-12-18T07:35:58;103103.31;;;15.61;100.00
6028;BME280;3042;43.194;27.646;2022-12-18T07:38:26;103127.31;;;15.43;100.00
6028;BME280;3042;43.194;27.646;2022-12-18T07:40:53;103107.59;;;14.78;100.00
6028;BME280;3042;43.194;27.646;2022-12-18T07:43:21;103137.75;;;15.43;100.00
6028;BME280;3042;43.194;27.646;2022-12-18T07:45:49;103136.97;;;15.30;100.00
6028;BME280;3042;43.194;27.646;2022-12-18T07:48:17;103164.34;;;14.84;100.00
6028;BME280;3042;43.194;27.646;2022-12-18T07:50:44;103161.84;;;14.85;100.00
6028;BME280;3042;43.194;27.646;2022-12-18T07:53:11;103161.38;;;14.52;100.00
6028;BME280;3042;43.194;27.646;2022-12-18T07:55:38;103170.59;;;14.61;100.00
6028;BME280;3042;43.194;27.646;2022-12-18T07:58:07;103170.88;;;14.52;100.00
6028;BME280;3042;43.194;27.646;2022-12-18T08:00:36;103177.44;;;14.47;100.00
6028;BME280;3042;43.194;27.646;2022-12-18T08:03:03;103125.88;;;14.14;100.00
6028;BME280;3042;43.194;27.646;2022-12-18T08:05:30;103143.34;;;14.42;100.00
6028;BME280;3042;43.194;27.646;2022-12-18T08:07:58;103067.34;;;14.08;100.00
6028;BME280;3042;43.194;27.646;2022-12-18T08:10:25;103144.38;;;14.57;100.00
6028;BME280;3042;43.194;27.646;2022-12-18T08:12:52;103160.94;;;14.85;100.00
6028;BME280;3042;43.194;27.646;2022-12-18T08:15:19;103163.44;;;15.10;100.00
6028;BME280;3042;43.194;27.646;2022-12-18T08:17:48;103150.56;;;15.53;100.00
6028;BME280;3042;43.194;27.646;2022-12-18T08:20:15;103116.78;;;15.13;100.00
6028;BME280;3042;43.194;27.646;2022-12-18T08:22:43;103160.63;;;14.93;100.00
6028;BME280;3042;43.194;27.646;2022-12-18T08:25:11;103139.59;;;14.64;100.00
6028;BME280;3042;43.194;27.646;2022-12-18T08:27:38;103178.63;;;14.64;100.00
6028;BME280;3042;43.194;27.646;2022-12-18T08:30:06;103167.44;;;14.78;100.00
6028;BME280;3042;43.194;27.646;2022-12-18T08:32:34;103178.03;;;14.54;100.00
6028;BME280;3042;43.194;27.646;2022-12-18T08:35:03;103175.25;;;14.78;100.00
6028;BME280;3042;43.194;27.646;2022-12-18T08:37:30;103183.47;;;14.71;100.00
6028;BME280;3042;43.194;27.646;2022-12-18T08:39:57;103185.25;;;14.72;100.00
6028;BME280;3042;43.194;27.646;2022-12-18T08:42:24;103197.66;;;14.38;100.00
6028;BME280;3042;43.194;27.646;2022-12-18T08:45:09;103190.06;;;14.66;100.00
6028;BME280;3042;43.194;27.646;2022-12-18T08:47:36;103172.94;;;14.69;100.00
6028;BME280;3042;43.194;27.646;2022-12-18T08:50:06;103149.44;;;15.08;100.00
6028;BME280;3042;43.194;27.646;2022-12-18T08:52:33;103162.00;;;14.62;100.00
6028;BME280;3042;43.194;27.646;2022-12-18T08:55:00;103172.16;;;14.45;100.00
6028;BME280;3042;43.194;27.646;2022-12-18T08:57:27;103168.63;;;14.56;100.00
6028;BME280;3042;43.194;27.646;2022-12-18T08:59:54;103157.28;;;14.56;100.00
6028;BME280;3042;43.194;27.646;2022-12-18T09:02:22;103150.44;;;14.96;100.00
6028;BME280;3042;43.194;27.646;2022-12-18T09:04:49;103150.50;;;14.71;100.00
6028;BME280;3042;43.194;27.646;2022-12-18T09:07:17;103136.97;;;15.30;100.00
6028;BME280;3042;43.194;27.646;2022-12-18T09:09:45;103155.03;;;14.87;100.00
6028;BME280;3042;43.194;27.646;2022-12-18T09:12:12;103152.03;;;14.94;100.00
6028;BME280;3042;43.194;27.646;2022-12-18T09:14:39;103158.22;;;14.70;100.00
6028;BME280;3042;43.194;27.646;2022-12-18T09:17:06;103167.41;;;14.65;100.00
6028;BME280;3042;43.194;27.646;2022-12-18T09:19:33;103106.97;;;14.30;100.00
6028;BME280;3042;43.194;27.646;2022-12-18T09:22:00;103162.03;;;14.88;100.00
6028;BME280;3042;43.194;27.646;2022-12-18T09:24:29;103080.13;;;14.83;100.00
6028;BME280;3042;43.194;27.646;2022-12-18T09:26:56;103156.84;;;15.15;100.00
6028;BME280;3042;43.194;27.646;2022-12-18T09:29:24;103139.38;;;15.40;100.00
6028;BME280;3042;43.194;27.646;2022-12-18T09:31:51;103161.84;;;14.98;100.00
6028;BME280;3042;43.194;27.646;2022-12-18T09:34:18;103155.72;;;14.98;100.00
6028;BME280;3042;43.194;27.646;2022-12-18T09:36:47;103142.06;;;15.42;100.00
6028;BME280;3042;43.194;27.646;2022-12-18T09:39:14;103163.13;;;15.18;100.00
6028;BME280;3042;43.194;27.646;2022-12-18T09:41:49;103144.38;;;15.37;100.00
6028;BME280;3042;43.194;27.646;2022-12-18T09:44:23;103150.56;;;15.53;100.00
6028;BME280;3042;43.194;27.646;2022-12-18T09:46:58;103122.94;;;15.70;100.00
6028;BME280;3042;43.194;27.646;2022-12-18T09:49:31;103121.47;;;15.60;100.00
6028;BME280;3042;43.194;27.646;2022-12-18T09:52:03;103109.53;;;15.92;100.00
6028;BME280;3042;43.194;27.646;2022-12-18T09:54:35;103111.19;;;15.90;100.00
6028;BME280;3042;43.194;27.646;2022-12-18T09:57:05;103085.94;;;15.75;100.00
6028;BME280;3042;43.194;27.646;2022-12-18T09:59:35;103018.56;;;15.25;100.00
6028;BME280;3042;43.194;27.646;2022-12-18T10:02:14;103101.13;;;16.25;100.00
6028;BME280;3042;43.194;27.646;2022-12-18T10:04:42;103133.13;;;15.52;100.00
6028;BME280;3042;43.194;27.646;2022-12-18T10:07:14;103097.53;;;16.38;100.00
6028;BME280;3042;43.194;27.646;2022-12-18T10:09:47;103083.16;;;15.72;100.00
6028;BME280;3042;43.194;27.646;2022-12-18T10:12:23;103097.47;;;16.37;100.00
6028;BME280;3042;43.194;27.646;2022-12-18T10:14:56;103092.66;;;16.00;100.00
6028;BME280;3042;43.194;27.646;2022-12-18T10:17:30;103094.72;;;15.91;100.00
6028;BME280;3042;43.194;27.646;2022-12-18T10:20:02;103114.69;;;15.49;100.00
6028;BME280;3042;43.194;27.646;2022-12-18T10:22:43;103093.94;;;16.07;100.00
6028;BME280;3042;43.194;27.646;2022-12-18T10:25:20;103005.19;;;15.62;100.00
6028;BME280;3042;43.194;27.646;2022-12-18T10:27:53;103034.28;;;15.55;100.00
6028;BME280;3042;43.194;27.646;2022-12-18T10:30:23;103062.56;;;15.49;100.00
6028;BME280;3042;43.194;27.646;2022-12-18T10:32:51;103106.22;;;15.94;100.00
6028;BME280;3042;43.194;27.646;2022-12-18T10:35:20;103020.84;;;15.62;100.00
6028;BME280;3042;43.194;27.646;2022-12-18T10:38:04;103114.41;;;15.86;100.00
6028;BME280;3042;43.194;27.646;2022-12-18T10:40:33;103131.28;;;15.23;100.00
6028;BME280;3042;43.194;27.646;2022-12-18T10:43:20;103129.47;;;15.76;100.00
6028;BME280;3042;43.194;27.646;2022-12-18T10:46:00;103116.59;;;16.08;100.00
6028;BME280;3042;43.194;27.646;2022-12-18T10:48:28;103132.66;;;15.86;100.00
6028;BME280;3042;43.194;27.646;2022-12-18T10:50:56;103064.34;;;14.80;100.00
6028;BME280;3042;43.194;27.646;2022-12-18T10:53:26;103136.88;;;15.83;100.00
6028;BME280;3042;43.194;27.646;2022-12-18T10:55:55;103128.91;;;16.10;100.00
6028;BME280;3042;43.194;27.646;2022-12-18T10:58:30;103119.66;;;16.15;100.00
6028;BME280;3042;43.194;27.646;2022-12-18T11:01:10;103075.38;;;16.61;100.00
6028;BME280;3042;43.194;27.646;2022-12-18T11:03:39;103128.03;;;16.54;100.00
6028;BME280;3042;43.194;27.646;2022-12-18T11:06:09;103124.72;;;16.72;100.00
6028;BME280;3042;43.194;27.646;2022-12-18T11:08:37;103124.72;;;16.72;100.00
6028;BME280;3042;43.194;27.646;2022-12-18T11:11:14;103122.09;;;17.18;100.00
6028;BME280;3042;43.194;27.646;2022-12-18T11:13:51;103098.28;;;17.12;100.00
6028;BME280;3042;43.194;27.646;2022-12-18T11:16:23;103144.53;;;16.98;100.00
6028;BME280;3042;43.194;27.646;2022-12-18T11:18:50;103144.53;;;16.98;100.00
6028;BME280;3042;43.194;27.646;2022-12-18T11:21:17;103153.53;;;16.88;100.00
6028;BME280;3042;43.194;27.646;2022-12-18T11:23:47;102911.44;;;15.49;100.00
6028;BME280;3042;43.194;27.646;2022-12-18T11:26:16;103158.03;;;16.46;100.00
6028;BME280;3042;43.194;27.646;2022-12-18T11:28:47;103140.47;;;16.58;100.00
6028;BME280;3042;43.194;27.646;2022-12-18T11:31:21;103110.66;;;16.55;100.00
6028;BME280;3042;43.194;27.646;2022-12-18T11:34:02;103148.38;;;16.75;100.00
6028;BME280;3042;43.194;27.646;2022-12-18T11:36:33;103059.75;;;16.02;100.00
6028;BME280;3042;43.194;27.646;2022-12-18T11:39:12;103143.00;;;16.72;100.00
6028;BME280;3042;43.194;27.646;2022-12-18T11:41:48;102926.47;;;15.53;100.00
6028;BME280;3042;43.194;27.646;2022-12-18T11:44:42;103115.19;;;16.28;100.00
6028;BME280;3042;43.194;27.646;2022-12-18T11:47:13;103145.50;;;16.40;100.00
6028;BME280;3042;43.194;27.646;2022-12-18T11:49:43;103160.56;;;16.01;100.00
6028;BME280;3042;43.194;27.646;2022-12-18T11:52:17;103151.00;;;16.30;100.00
6028;BME280;3042;43.194;27.646;2022-12-18T11:54:45;103173.38;;;15.83;100.00
6028;BME280;3042;43.194;27.646;2022-12-18T11:57:26;103147.84;;;16.65;100.00
6028;BME280;3042;43.194;27.646;2022-12-18T12:00:04;103151.88;;;16.31;100.00
6028;BME280;3042;43.194;27.646;2022-12-18T12:02:47;103160.19;;;16.53;100.00
6028;BME280;3042;43.194;27.646;2022-12-18T12:05:27;103162.69;;;16.52;100.00
6028;BME280;3042;43.194;27.646;2022-12-18T12:08:05;102961.03;;;14.52;100.00
6028;BME280;3042;43.194;27.646;2022-12-18T12:10:43;103170.41;;;16.20;100.00
6028;BME280;3042;43.194;27.646;2022-12-18T12:13:27;103153.88;;;16.35;100.00
6028;BME280;3042;43.194;27.646;2022-12-18T12:16:05;103175.47;;;16.47;100.00
6028;BME280;3042;43.194;27.646;2022-12-18T12:18:46;103181.97;;;16.39;100.00
6028;BME280;3042;43.194;27.646;2022-12-18T12:21:16;103186.41;;;16.27;100.00
6028;BME280;3042;43.194;27.646;2022-12-18T12:23:52;103191.63;;;16.27;100.00
6028;BME280;3042;43.194;27.646;2022-12-18T12:26:30;103186.09;;;16.50;100.00
6028;BME280;3042;43.194;27.646;2022-12-18T12:29:09;103201.03;;;16.10;100.00
6028;BME280;3042;43.194;27.646;2022-12-18T12:31:54;103188.63;;;16.49;100.00
6028;BME280;3042;43.194;27.646;2022-12-18T12:34:27;103216.88;;;16.13;100.00
6028;BME280;3042;43.194;27.646;2022-12-18T12:37:07;103211.78;;;16.14;100.00
6028;BME280;3042;43.194;27.646;2022-12-18T12:39:40;103216.28;;;16.17;100.00
6028;BME280;3042;43.194;27.646;2022-12-18T12:45:18;103220.97;;;16.22;100.00
6028;BME280;3042;43.194;27.646;2022-12-18T12:47:50;103243.47;;;15.79;100.00
6028;BME280;3042;43.194;27.646;2022-12-18T12:50:20;103248.19;;;15.45;100.00
6028;BME280;3042;43.194;27.646;2022-12-18T12:52:50;103268.03;;;15.16;100.00
6028;BME280;3042;43.194;27.646;2022-12-18T12:55:21;103253.63;;;15.48;100.00
6028;BME280;3042;43.194;27.646;2022-12-18T12:57:57;103245.75;;;15.61;100.00
6028;BME280;3042;43.194;27.646;2022-12-18T13:00:30;103254.59;;;15.50;100.00
6028;BME280;3042;43.194;27.646;2022-12-18T13:03:12;103253.31;;;15.43;100.00
6028;BME280;3042;43.194;27.646;2022-12-18T13:05:48;103182.66;;;15.12;100.00
6028;BME280;3042;43.194;27.646;2022-12-18T13:08:23;103260.22;;;15.56;100.00